sensor_id;sensor_type;location;lat;lon;timestamp;temperature;humidity
13322;DHT22;6730;46.248;6.930;2024-01-11T00:01:25;2.30;99.90
13322;DHT22;6730;46.248;6.930;2024-01-11T00:03:51;2.20;99.90
13322;DHT22;6730;46.248;6.930;2024-01-11T00:06:16;2.20;99.90
13322;DHT22;6730;46.248;6.930;2024-01-11T00:08:42;2.40;99.90
13322;DHT22;6730;46.248;6.930;2024-01-11T00:11:08;2.40;99.90
13322;DHT22;6730;46.248;6.930;2024-01-11T00:13:34;2.30;99.90
13322;DHT22;6730;46.248;6.930;2024-01-11T00:15:59;2.10;99.90
13322;DHT22;6730;46.248;6.930;2024-01-11T00:18:25;2.30;99.90
13322;DHT22;6730;46.248;6.930;2024-01-11T00:20:50;2.10;99.90
13322;DHT22;6730;46.248;6.930;2024-01-11T00:23:17;2.10;99.90
13322;DHT22;6730;46.248;6.930;2024-01-11T00:25:42;2.30;99.90
13322;DHT22;6730;46.248;6.930;2024-01-11T00:28:08;2.30;99.90
13322;DHT22;6730;46.248;6.930;2024-01-11T00:30:34;2.70;99.90
13322;DHT22;6730;46.248;6.930;2024-01-11T00:32:59;2.80;99.90
13322;DHT22;6730;46.248;6.930;2024-01-11T00:35:25;2.60;99.90
13322;DHT22;6730;46.248;6.930;2024-01-11T00:37:50;2.60;99.90
13322;DHT22;6730;46.248;6.930;2024-01-11T00:40:16;2.40;99.90
13322;DHT22;6730;46.248;6.930;2024-01-11T00:42:42;2.40;99.90
13322;DHT22;6730;46.248;6.930;2024-01-11T00:45:08;2.20;99.90
13322;DHT22;6730;46.248;6.930;2024-01-11T00:47:33;2.10;99.90
13322;DHT22;6730;46.248;6.930;2024-01-11T00:49:59;2.30;99.90
13322;DHT22;6730;46.248;6.930;2024-01-11T00:52:25;2.10;99.90
13322;DHT22;6730;46.248;6.930;2024-01-11T00:54:50;2.00;99.90
13322;DHT22;6730;46.248;6.930;2024-01-11T00:57:16;2.10;99.90
13322;DHT22;6730;46.248;6.930;2024-01-11T00:59:41;2.30;99.90
13322;DHT22;6730;46.248;6.930;2024-01-11T01:02:07;2.10;99.90
13322;DHT22;6730;46.248;6.930;2024-01-11T01:04:33;1.60;99.90
13322;DHT22;6730;46.248;6.930;2024-01-11T01:06:58;1.60;99.90
13322;DHT22;6730;46.248;6.930;2024-01-11T01:09:24;1.80;99.90
13322;DHT22;6730;46.248;6.930;2024-01-11T01:11:50;1.70;99.90
13322;DHT22;6730;46.248;6.930;2024-01-11T01:14:15;1.10;99.90
13322;DHT22;6730;46.248;6.930;2024-01-11T01:16:41;1.30;99.90
13322;DHT22;6730;46.248;6.930;2024-01-11T01:19:07;1.50;99.90
13322;DHT22;6730;46.248;6.930;2024-01-11T01:21:33;1.60;99.90
13322;DHT22;6730;46.248;6.930;2024-01-11T01:23:58;1.40;99.90
13322;DHT22;6730;46.248;6.930;2024-01-11T01:26:24;1.40;99.90
13322;DHT22;6730;46.248;6.930;2024-01-11T01:28:49;1.70;99.90
13322;DHT22;6730;46.248;6.930;2024-01-11T01:31:15;1.30;99.90
13322;DHT22;6730;46.248;6.930;2024-01-11T01:33:41;0.90;99.90
13322;DHT22;6730;46.248;6.930;2024-01-11T01:36:10;0.80;99.90
13322;DHT22;6730;46.248;6.930;2024-01-11T01:38:36;0.70;99.90
13322;DHT22;6730;46.248;6.930;2024-01-11T01:41:01;1.10;99.90
13322;DHT22;6730;46.248;6.930;2024-01-11T01:43:28;1.20;99.90
13322;DHT22;6730;46.248;6.930;2024-01-11T01:45:53;1.50;99.90
13322;DHT22;6730;46.248;6.930;2024-01-11T01:48:20;1.80;99.90
13322;DHT22;6730;46.248;6.930;2024-01-11T01:50:47;1.90;99.90
13322;DHT22;6730;46.248;6.930;2024-01-11T01:53:21;1.40;99.90
13322;DHT22;6730;46.248;6.930;2024-01-11T01:55:48;0.70;99.90
13322;DHT22;6730;46.248;6.930;2024-01-11T01:58:15;0.40;99.90
13322;DHT22;6730;46.248;6.930;2024-01-11T02:00:41;0.80;99.90
13322;DHT22;6730;46.248;6.930;2024-01-11T02:03:08;1.20;99.90
13322;DHT22;6730;46.248;6.930;2024-01-11T02:05:35;1.50;99.90
13322;DHT22;6730;46.248;6.930;2024-01-11T02:08:03;2.00;99.90
13322;DHT22;6730;46.248;6.930;2024-01-11T02:10:34;2.10;99.90
13322;DHT22;6730;46.248;6.930;2024-01-11T02:13:01;2.20;99.90
13322;DHT22;6730;46.248;6.930;2024-01-11T02:15:26;2.10;99.90
13322;DHT22;6730;46.248;6.930;2024-01-11T02:17:52;2.10;99.90
13322;DHT22;6730;46.248;6.930;2024-01-11T02:20:18;2.00;99.90
13322;DHT22;6730;46.248;6.930;2024-01-11T02:22:48;2.10;99.90
13322;DHT22;6730;46.248;6.930;2024-01-11T02:25:15;2.00;99.90
13322;DHT22;6730;46.248;6.930;2024-01-11T02:27:48;2.00;99.90
13322;DHT22;6730;46.248;6.930;2024-01-11T02:30:14;2.10;99.90
13322;DHT22;6730;46.248;6.930;2024-01-11T02:32:42;2.10;99.90
13322;DHT22;6730;46.248;6.930;2024-01-11T02:35:08;2.30;99.90
13322;DHT22;6730;46.248;6.930;2024-01-11T02:37:35;2.20;99.90
13322;DHT22;6730;46.248;6.930;2024-01-11T02:40:01;2.10;99.90
13322;DHT22;6730;46.248;6.930;2024-01-11T02:42:27;2.30;99.90
13322;DHT22;6730;46.248;6.930;2024-01-11T02:44:53;1.80;99.90
13322;DHT22;6730;46.248;6.930;2024-01-11T02:47:19;1.70;99.90
13322;DHT22;6730;46.248;6.930;2024-01-11T02:49:44;1.80;99.90
13322;DHT22;6730;46.248;6.930;2024-01-11T02:52:10;1.80;99.90
13322;DHT22;6730;46.248;6.930;2024-01-11T02:54:36;1.90;99.90
13322;DHT22;6730;46.248;6.930;2024-01-11T03:00:23;1.80;99.90
13322;DHT22;6730;46.248;6.930;2024-01-11T03:02:49;0.90;99.90
13322;DHT22;6730;46.248;6.930;2024-01-11T03:05:14;0.50;99.90
13322;DHT22;6730;46.248;6.930;2024-01-11T03:07:40;0.40;99.90
13322;DHT22;6730;46.248;6.930;2024-01-11T03:10:06;0.40;99.90
13322;DHT22;6730;46.248;6.930;2024-01-11T03:12:31;0.30;99.90
13322;DHT22;6730;46.248;6.930;2024-01-11T03:14:57;0.00;99.90
13322;DHT22;6730;46.248;6.930;2024-01-11T03:17:23;-0.20;99.90
13322;DHT22;6730;46.248;6.930;2024-01-11T03:19:49;-0.30;99.90
13322;DHT22;6730;46.248;6.930;2024-01-11T03:22:14;-0.30;99.90
13322;DHT22;6730;46.248;6.930;2024-01-11T03:24:40;-0.30;99.90
13322;DHT22;6730;46.248;6.930;2024-01-11T03:27:06;-0.30;99.90
13322;DHT22;6730;46.248;6.930;2024-01-11T03:29:31;-0.40;99.90
13322;DHT22;6730;46.248;6.930;2024-01-11T03:31:57;-0.40;99.90
13322;DHT22;6730;46.248;6.930;2024-01-11T03:34:23;-0.40;99.90
13322;DHT22;6730;46.248;6.930;2024-01-11T03:36:48;-0.40;99.90
13322;DHT22;6730;46.248;6.930;2024-01-11T03:39:14;-0.30;99.90
13322;DHT22;6730;46.248;6.930;2024-01-11T03:41:44;-0.30;99.90
13322;DHT22;6730;46.248;6.930;2024-01-11T03:44:10;-0.40;99.90
13322;DHT22;6730;46.248;6.930;2024-01-11T03:46:36;-0.50;99.90
13322;DHT22;6730;46.248;6.930;2024-01-11T03:49:01;-0.50;99.90
13322;DHT22;6730;46.248;6.930;2024-01-11T03:51:27;-0.50;99.90
13322;DHT22;6730;46.248;6.930;2024-01-11T03:53:53;-0.50;99.90
13322;DHT22;6730;46.248;6.930;2024-01-11T03:56:19;-0.50;99.90
13322;DHT22;6730;46.248;6.930;2024-01-11T03:58:45;-0.50;99.90
13322;DHT22;6730;46.248;6.930;2024-01-11T04:01:11;-0.60;99.90
13322;DHT22;6730;46.248;6.930;2024-01-11T04:03:37;-0.50;99.90
13322;DHT22;6730;46.248;6.930;2024-01-11T04:06:03;-0.40;99.90
13322;DHT22;6730;46.248;6.930;2024-01-11T04:08:29;-0.30;99.90
13322;DHT22;6730;46.248;6.930;2024-01-11T04:10:55;-0.40;99.90
13322;DHT22;6730;46.248;6.930;2024-01-11T04:13:20;-0.10;99.90
13322;DHT22;6730;46.248;6.930;2024-01-11T04:15:46;0.20;99.90
13322;DHT22;6730;46.248;6.930;2024-01-11T04:18:12;0.00;99.90
13322;DHT22;6730;46.248;6.930;2024-01-11T04:20:37;0.10;99.90
13322;DHT22;6730;46.248;6.930;2024-01-11T04:23:03;-0.10;99.90
13322;DHT22;6730;46.248;6.930;2024-01-11T04:25:29;-0.30;99.90
13322;DHT22;6730;46.248;6.930;2024-01-11T04:27:54;-0.30;99.90
13322;DHT22;6730;46.248;6.930;2024-01-11T04:30:20;-0.40;99.90
13322;DHT22;6730;46.248;6.930;2024-01-11T04:32:46;-0.40;99.90
13322;DHT22;6730;46.248;6.930;2024-01-11T04:35:11;-0.40;99.90
13322;DHT22;6730;46.248;6.930;2024-01-11T04:37:37;-0.30;99.90
13322;DHT22;6730;46.248;6.930;2024-01-11T04:40:03;-0.40;99.90
13322;DHT22;6730;46.248;6.930;2024-01-11T04:42:29;-0.40;99.90
13322;DHT22;6730;46.248;6.930;2024-01-11T04:44:55;-0.40;99.90
13322;DHT22;6730;46.248;6.930;2024-01-11T04:47:20;-0.50;99.90
13322;DHT22;6730;46.248;6.930;2024-01-11T04:49:46;-0.50;99.90
13322;DHT22;6730;46.248;6.930;2024-01-11T04:52:12;-0.40;99.90
13322;DHT22;6730;46.248;6.930;2024-01-11T04:54:37;-0.50;99.90
13322;DHT22;6730;46.248;6.930;2024-01-11T04:57:03;-0.60;99.90
13322;DHT22;6730;46.248;6.930;2024-01-11T04:59:29;-0.60;99.90
13322;DHT22;6730;46.248;6.930;2024-01-11T05:01:55;-0.50;99.90
13322;DHT22;6730;46.248;6.930;2024-01-11T05:04:21;-0.10;99.90
13322;DHT22;6730;46.248;6.930;2024-01-11T05:06:47;0.10;99.90
13322;DHT22;6730;46.248;6.930;2024-01-11T05:09:12;0.60;99.90
13322;DHT22;6730;46.248;6.930;2024-01-11T05:11:39;0.40;99.90
13322;DHT22;6730;46.248;6.930;2024-01-11T05:14:05;0.00;99.90
13322;DHT22;6730;46.248;6.930;2024-01-11T05:16:30;-0.30;99.90
13322;DHT22;6730;46.248;6.930;2024-01-11T05:18:57;-0.50;99.90
13322;DHT22;6730;46.248;6.930;2024-01-11T05:21:23;-0.20;99.90
13322;DHT22;6730;46.248;6.930;2024-01-11T05:23:49;0.20;99.90
13322;DHT22;6730;46.248;6.930;2024-01-11T05:26:16;0.50;99.90
13322;DHT22;6730;46.248;6.930;2024-01-11T05:28:43;0.60;99.90
13322;DHT22;6730;46.248;6.930;2024-01-11T05:31:13;0.10;99.90
13322;DHT22;6730;46.248;6.930;2024-01-11T05:33:40;-0.20;99.90
13322;DHT22;6730;46.248;6.930;2024-01-11T05:36:06;-0.40;99.90
13322;DHT22;6730;46.248;6.930;2024-01-11T05:38:32;-0.20;99.90
13322;DHT22;6730;46.248;6.930;2024-01-11T05:40:58;0.00;99.90
13322;DHT22;6730;46.248;6.930;2024-01-11T05:43:23;0.10;99.90
13322;DHT22;6730;46.248;6.930;2024-01-11T05:45:49;0.20;99.90
13322;DHT22;6730;46.248;6.930;2024-01-11T05:48:16;0.00;99.90
13322;DHT22;6730;46.248;6.930;2024-01-11T05:50:42;0.50;99.90
13322;DHT22;6730;46.248;6.930;2024-01-11T05:53:08;0.70;99.90
13322;DHT22;6730;46.248;6.930;2024-01-11T05:55:34;0.50;99.90
13322;DHT22;6730;46.248;6.930;2024-01-11T05:58:00;0.10;99.90
13322;DHT22;6730;46.248;6.930;2024-01-11T06:00:25;-0.30;99.90
13322;DHT22;6730;46.248;6.930;2024-01-11T06:02:51;-0.50;99.90
13322;DHT22;6730;46.248;6.930;2024-01-11T06:05:16;-0.50;99.90
13322;DHT22;6730;46.248;6.930;2024-01-11T06:07:42;0.00;99.90
13322;DHT22;6730;46.248;6.930;2024-01-11T06:10:08;0.30;99.90
13322;DHT22;6730;46.248;6.930;2024-01-11T06:12:35;0.00;99.90
13322;DHT22;6730;46.248;6.930;2024-01-11T06:15:01;-0.10;99.90
13322;DHT22;6730;46.248;6.930;2024-01-11T06:17:27;0.00;99.90
13322;DHT22;6730;46.248;6.930;2024-01-11T06:19:53;0.50;99.90
13322;DHT22;6730;46.248;6.930;2024-01-11T06:22:19;1.00;99.90
13322;DHT22;6730;46.248;6.930;2024-01-11T06:24:44;1.30;99.90
13322;DHT22;6730;46.248;6.930;2024-01-11T06:27:10;1.50;99.90
13322;DHT22;6730;46.248;6.930;2024-01-11T06:29:37;1.60;99.90
13322;DHT22;6730;46.248;6.930;2024-01-11T06:32:02;1.90;99.90
13322;DHT22;6730;46.248;6.930;2024-01-11T06:34:28;2.10;99.90
13322;DHT22;6730;46.248;6.930;2024-01-11T06:36:54;2.30;99.90
13322;DHT22;6730;46.248;6.930;2024-01-11T06:39:20;2.40;99.90
13322;DHT22;6730;46.248;6.930;2024-01-11T06:41:46;2.50;99.90
13322;DHT22;6730;46.248;6.930;2024-01-11T06:44:12;2.30;99.90
13322;DHT22;6730;46.248;6.930;2024-01-11T06:46:38;2.40;99.90
13322;DHT22;6730;46.248;6.930;2024-01-11T06:49:07;2.40;99.90
13322;DHT22;6730;46.248;6.930;2024-01-11T06:51:33;2.40;99.90
13322;DHT22;6730;46.248;6.930;2024-01-11T06:53:59;2.10;99.90
13322;DHT22;6730;46.248;6.930;2024-01-11T06:56:26;1.90;99.90
13322;DHT22;6730;46.248;6.930;2024-01-11T06:58:52;1.70;99.90
13322;DHT22;6730;46.248;6.930;2024-01-11T07:01:17;1.70;99.90
13322;DHT22;6730;46.248;6.930;2024-01-11T07:03:43;1.90;99.90
13322;DHT22;6730;46.248;6.930;2024-01-11T07:06:09;2.00;99.90
13322;DHT22;6730;46.248;6.930;2024-01-11T07:08:35;1.70;99.90
13322;DHT22;6730;46.248;6.930;2024-01-11T07:11:01;1.40;99.90
13322;DHT22;6730;46.248;6.930;2024-01-11T07:13:30;1.30;99.90
13322;DHT22;6730;46.248;6.930;2024-01-11T07:15:59;1.50;99.90
13322;DHT22;6730;46.248;6.930;2024-01-11T07:18:25;1.60;99.90
13322;DHT22;6730;46.248;6.930;2024-01-11T07:20:52;1.80;99.90
13322;DHT22;6730;46.248;6.930;2024-01-11T07:23:18;1.90;99.90
13322;DHT22;6730;46.248;6.930;2024-01-11T07:25:47;2.20;99.90
13322;DHT22;6730;46.248;6.930;2024-01-11T07:28:12;2.30;99.90
13322;DHT22;6730;46.248;6.930;2024-01-11T07:30:38;2.20;99.90
13322;DHT22;6730;46.248;6.930;2024-01-11T07:33:05;1.90;99.90
13322;DHT22;6730;46.248;6.930;2024-01-11T07:35:31;1.30;99.90
13322;DHT22;6730;46.248;6.930;2024-01-11T07:37:57;0.90;99.90
13322;DHT22;6730;46.248;6.930;2024-01-11T07:40:23;0.70;99.90
13322;DHT22;6730;46.248;6.930;2024-01-11T07:42:48;1.10;99.90
13322;DHT22;6730;46.248;6.930;2024-01-11T07:45:15;1.50;99.90
13322;DHT22;6730;46.248;6.930;2024-01-11T07:47:40;1.90;99.90
13322;DHT22;6730;46.248;6.930;2024-01-11T07:50:07;2.00;99.90
13322;DHT22;6730;46.248;6.930;2024-01-11T07:52:36;2.10;99.90
13322;DHT22;6730;46.248;6.930;2024-01-11T07:55:07;1.60;99.90
13322;DHT22;6730;46.248;6.930;2024-01-11T07:57:36;1.00;99.90
13322;DHT22;6730;46.248;6.930;2024-01-11T08:00:03;0.40;99.90
13322;DHT22;6730;46.248;6.930;2024-01-11T08:02:32;0.00;99.90
13322;DHT22;6730;46.248;6.930;2024-01-11T08:04:57;-0.30;99.90
13322;DHT22;6730;46.248;6.930;2024-01-11T08:07:25;-0.50;99.90
13322;DHT22;6730;46.248;6.930;2024-01-11T08:09:51;-0.60;99.90
13322;DHT22;6730;46.248;6.930;2024-01-11T08:12:17;-0.70;99.90
13322;DHT22;6730;46.248;6.930;2024-01-11T08:14:42;-0.80;99.90
13322;DHT22;6730;46.248;6.930;2024-01-11T08:17:08;-0.80;99.90
13322;DHT22;6730;46.248;6.930;2024-01-11T08:19:35;-0.80;99.90
13322;DHT22;6730;46.248;6.930;2024-01-11T08:22:01;-0.70;99.90
13322;DHT22;6730;46.248;6.930;2024-01-11T08:24:27;-0.60;99.90
13322;DHT22;6730;46.248;6.930;2024-01-11T08:26:53;-0.30;99.90
13322;DHT22;6730;46.248;6.930;2024-01-11T08:29:19;-0.10;99.90
13322;DHT22;6730;46.248;6.930;2024-01-11T08:31:46;0.20;99.90
13322;DHT22;6730;46.248;6.930;2024-01-11T08:34:11;0.20;99.90
13322;DHT22;6730;46.248;6.930;2024-01-11T08:36:37;-0.10;99.90
13322;DHT22;6730;46.248;6.930;2024-01-11T08:39:07;-0.20;99.90
13322;DHT22;6730;46.248;6.930;2024-01-11T08:41:36;-0.30;99.90
13322;DHT22;6730;46.248;6.930;2024-01-11T08:44:03;-0.40;99.90
13322;DHT22;6730;46.248;6.930;2024-01-11T08:46:31;-0.50;99.90
13322;DHT22;6730;46.248;6.930;2024-01-11T08:48:58;-0.50;99.90
13322;DHT22;6730;46.248;6.930;2024-01-11T08:51:24;-0.50;99.90
13322;DHT22;6730;46.248;6.930;2024-01-11T08:53:50;-0.50;99.90
13322;DHT22;6730;46.248;6.930;2024-01-11T08:56:15;-0.40;99.90
13322;DHT22;6730;46.248;6.930;2024-01-11T08:58:44;-0.40;99.90
13322;DHT22;6730;46.248;6.930;2024-01-11T09:01:10;-0.40;99.90
13322;DHT22;6730;46.248;6.930;2024-01-11T09:03:36;-0.50;99.90
13322;DHT22;6730;46.248;6.930;2024-01-11T09:06:03;-0.30;99.90
13322;DHT22;6730;46.248;6.930;2024-01-11T09:08:29;-0.20;99.90
13322;DHT22;6730;46.248;6.930;2024-01-11T09:10:56;-0.30;99.90
13322;DHT22;6730;46.248;6.930;2024-01-11T09:13:24;-0.30;99.90
13322;DHT22;6730;46.248;6.930;2024-01-11T09:15:51;-0.40;99.90
13322;DHT22;6730;46.248;6.930;2024-01-11T09:18:17;-0.30;99.90
13322;DHT22;6730;46.248;6.930;2024-01-11T09:20:43;-0.20;99.90
13322;DHT22;6730;46.248;6.930;2024-01-11T09:23:09;-0.20;99.90
13322;DHT22;6730;46.248;6.930;2024-01-11T09:25:35;-0.20;99.90
13322;DHT22;6730;46.248;6.930;2024-01-11T09:28:01;-0.10;99.90
13322;DHT22;6730;46.248;6.930;2024-01-11T09:30:26;0.20;99.90
13322;DHT22;6730;46.248;6.930;2024-01-11T09:32:52;0.00;99.90
13322;DHT22;6730;46.248;6.930;2024-01-11T09:35:18;-0.10;99.90
13322;DHT22;6730;46.248;6.930;2024-01-11T09:37:44;-0.10;99.90
13322;DHT22;6730;46.248;6.930;2024-01-11T09:40:12;-0.30;99.90
13322;DHT22;6730;46.248;6.930;2024-01-11T09:42:38;0.00;99.90
13322;DHT22;6730;46.248;6.930;2024-01-11T09:45:08;0.00;99.90
13322;DHT22;6730;46.248;6.930;2024-01-11T09:47:35;-0.10;99.90
13322;DHT22;6730;46.248;6.930;2024-01-11T09:50:02;-0.20;99.90
13322;DHT22;6730;46.248;6.930;2024-01-11T09:52:28;-0.30;99.90
13322;DHT22;6730;46.248;6.930;2024-01-11T09:55:00;-0.20;99.90
13322;DHT22;6730;46.248;6.930;2024-01-11T09:57:30;-0.20;99.90
13322;DHT22;6730;46.248;6.930;2024-01-11T09:59:58;0.00;99.90
13322;DHT22;6730;46.248;6.930;2024-01-11T10:02:24;-0.20;99.90
13322;DHT22;6730;46.248;6.930;2024-01-11T10:04:52;-0.10;99.90
13322;DHT22;6730;46.248;6.930;2024-01-11T10:07:22;-0.20;99.90
13322;DHT22;6730;46.248;6.930;2024-01-11T10:09:50;0.00;99.90
13322;DHT22;6730;46.248;6.930;2024-01-11T10:12:20;0.20;99.90
13322;DHT22;6730;46.248;6.930;2024-01-11T10:14:48;0.20;99.90
13322;DHT22;6730;46.248;6.930;2024-01-11T10:17:14;0.20;99.90
13322;DHT22;6730;46.248;6.930;2024-01-11T10:19:40;0.40;99.90
13322;DHT22;6730;46.248;6.930;2024-01-11T10:22:06;0.70;99.90
13322;DHT22;6730;46.248;6.930;2024-01-11T10:24:32;0.60;99.90
13322;DHT22;6730;46.248;6.930;2024-01-11T10:26:58;0.80;99.90
13322;DHT22;6730;46.248;6.930;2024-01-11T10:29:33;0.60;99.90
13322;DHT22;6730;46.248;6.930;2024-01-11T10:32:03;0.80;99.90
13322;DHT22;6730;46.248;6.930;2024-01-11T10:34:29;1.20;99.90
13322;DHT22;6730;46.248;6.930;2024-01-11T10:36:54;1.40;99.90
13322;DHT22;6730;46.248;6.930;2024-01-11T10:39:27;1.30;99.90
13322;DHT22;6730;46.248;6.930;2024-01-11T10:42:03;1.30;99.90
13322;DHT22;6730;46.248;6.930;2024-01-11T10:44:33;1.10;99.90
13322;DHT22;6730;46.248;6.930;2024-01-11T10:46:59;0.80;99.90
13322;DHT22;6730;46.248;6.930;2024-01-11T10:49:27;0.50;99.90
13322;DHT22;6730;46.248;6.930;2024-01-11T10:54:24;0.70;99.90
13322;DHT22;6730;46.248;6.930;2024-01-11T10:56:50;0.60;99.90
13322;DHT22;6730;46.248;6.930;2024-01-11T10:59:18;0.90;99.90
13322;DHT22;6730;46.248;6.930;2024-01-11T11:01:46;1.10;99.90
13322;DHT22;6730;46.248;6.930;2024-01-11T11:04:12;1.30;99.90
13322;DHT22;6730;46.248;6.930;2024-01-11T11:06:39;1.50;99.90
13322;DHT22;6730;46.248;6.930;2024-01-11T11:09:07;1.50;99.90
13322;DHT22;6730;46.248;6.930;2024-01-11T11:11:33;1.60;99.90
13322;DHT22;6730;46.248;6.930;2024-01-11T11:14:01;1.60;99.90
13322;DHT22;6730;46.248;6.930;2024-01-11T11:16:27;1.00;99.90
13322;DHT22;6730;46.248;6.930;2024-01-11T11:18:54;0.70;99.90
13322;DHT22;6730;46.248;6.930;2024-01-11T11:21:20;0.50;99.90
13322;DHT22;6730;46.248;6.930;2024-01-11T11:23:46;0.20;99.90
13322;DHT22;6730;46.248;6.930;2024-01-11T11:26:16;0.10;99.90
13322;DHT22;6730;46.248;6.930;2024-01-11T11:28:43;0.10;99.90
13322;DHT22;6730;46.248;6.930;2024-01-11T11:31:10;0.40;99.90
13322;DHT22;6730;46.248;6.930;2024-01-11T11:33:37;0.90;99.90
13322;DHT22;6730;46.248;6.930;2024-01-11T11:36:03;1.00;99.90
13322;DHT22;6730;46.248;6.930;2024-01-11T11:38:30;0.80;99.90
13322;DHT22;6730;46.248;6.930;2024-01-11T11:40:57;0.60;99.90
13322;DHT22;6730;46.248;6.930;2024-01-11T11:43:26;0.60;99.90
13322;DHT22;6730;46.248;6.930;2024-01-11T11:45:52;0.50;99.90
13322;DHT22;6730;46.248;6.930;2024-01-11T11:51:10;0.40;99.90
13322;DHT22;6730;46.248;6.930;2024-01-11T11:53:36;0.20;99.90
13322;DHT22;6730;46.248;6.930;2024-01-11T11:56:03;0.20;99.90
13322;DHT22;6730;46.248;6.930;2024-01-11T11:58:30;0.10;99.90
13322;DHT22;6730;46.248;6.930;2024-01-11T12:00:58;0.30;99.90
13322;DHT22;6730;46.248;6.930;2024-01-11T12:03:35;0.30;99.90
13322;DHT22;6730;46.248;6.930;2024-01-11T12:06:05;0.40;99.90
13322;DHT22;6730;46.248;6.930;2024-01-11T12:08:32;0.70;99.90
13322;DHT22;6730;46.248;6.930;2024-01-11T12:10:58;0.40;99.90
13322;DHT22;6730;46.248;6.930;2024-01-11T12:13:24;0.30;99.90
13322;DHT22;6730;46.248;6.930;2024-01-11T12:15:50;0.40;99.90
13322;DHT22;6730;46.248;6.930;2024-01-11T12:18:16;0.50;99.90
13322;DHT22;6730;46.248;6.930;2024-01-11T12:20:41;0.70;99.90
13322;DHT22;6730;46.248;6.930;2024-01-11T12:23:07;0.80;99.90
13322;DHT22;6730;46.248;6.930;2024-01-11T12:25:33;1.00;99.90
13322;DHT22;6730;46.248;6.930;2024-01-11T12:27:59;1.30;99.90
13322;DHT22;6730;46.248;6.930;2024-01-11T12:30:25;1.40;99.90
13322;DHT22;6730;46.248;6.930;2024-01-11T12:32:55;1.30;99.90
13322;DHT22;6730;46.248;6.930;2024-01-11T12:35:21;1.20;99.90
13322;DHT22;6730;46.248;6.930;2024-01-11T12:38:05;1.20;99.90
13322;DHT22;6730;46.248;6.930;2024-01-11T12:40:38;1.40;99.90
13322;DHT22;6730;46.248;6.930;2024-01-11T12:43:05;1.40;99.90
13322;DHT22;6730;46.248;6.930;2024-01-11T12:45:32;1.40;99.90
13322;DHT22;6730;46.248;6.930;2024-01-11T12:48:01;1.40;99.90
13322;DHT22;6730;46.248;6.930;2024-01-11T12:50:27;1.20;99.90
13322;DHT22;6730;46.248;6.930;2024-01-11T12:55:34;1.20;99.90
13322;DHT22;6730;46.248;6.930;2024-01-11T12:58:07;1.20;99.90
13322;DHT22;6730;46.248;6.930;2024-01-11T13:00:35;1.20;99.90
13322;DHT22;6730;46.248;6.930;2024-01-11T13:03:01;1.20;99.90
13322;DHT22;6730;46.248;6.930;2024-01-11T13:05:27;1.20;99.90
13322;DHT22;6730;46.248;6.930;2024-01-11T13:07:53;1.10;99.90
13322;DHT22;6730;46.248;6.930;2024-01-11T13:10:19;1.20;99.90
13322;DHT22;6730;46.248;6.930;2024-01-11T13:12:45;1.00;99.90
13322;DHT22;6730;46.248;6.930;2024-01-11T13:15:11;1.00;99.90
13322;DHT22;6730;46.248;6.930;2024-01-11T13:17:36;1.00;99.90
13322;DHT22;6730;46.248;6.930;2024-01-11T13:20:02;1.10;99.90
13322;DHT22;6730;46.248;6.930;2024-01-11T13:22:28;1.20;99.90
13322;DHT22;6730;46.248;6.930;2024-01-11T13:24:54;1.10;99.90
13322;DHT22;6730;46.248;6.930;2024-01-11T13:27:19;1.10;99.90
13322;DHT22;6730;46.248;6.930;2024-01-11T13:29:45;1.10;99.90
13322;DHT22;6730;46.248;6.930;2024-01-11T13:32:11;1.20;99.90
13322;DHT22;6730;46.248;6.930;2024-01-11T13:34:37;1.20;99.90
13322;DHT22;6730;46.248;6.930;2024-01-11T13:37:03;1.40;99.90
13322;DHT22;6730;46.248;6.930;2024-01-11T13:39:29;1.50;99.90
13322;DHT22;6730;46.248;6.930;2024-01-11T13:41:54;1.40;99.90
13322;DHT22;6730;46.248;6.930;2024-01-11T13:44:20;1.00;99.90
13322;DHT22;6730;46.248;6.930;2024-01-11T13:46:46;1.00;99.90
13322;DHT22;6730;46.248;6.930;2024-01-11T13:49:11;0.80;99.90
13322;DHT22;6730;46.248;6.930;2024-01-11T13:51:37;0.90;99.90
13322;DHT22;6730;46.248;6.930;2024-01-11T13:54:03;1.00;99.90
13322;DHT22;6730;46.248;6.930;2024-01-11T13:56:29;1.10;99.90
13322;DHT22;6730;46.248;6.930;2024-01-11T13:58:55;1.10;99.90
13322;DHT22;6730;46.248;6.930;2024-01-11T14:01:20;1.20;99.90
13322;DHT22;6730;46.248;6.930;2024-01-11T14:03:46;0.90;99.90
13322;DHT22;6730;46.248;6.930;2024-01-11T14:06:12;0.90;99.90
13322;DHT22;6730;46.248;6.930;2024-01-11T14:08:38;1.10;99.90
13322;DHT22;6730;46.248;6.930;2024-01-11T14:11:04;1.30;99.90
13322;DHT22;6730;46.248;6.930;2024-01-11T14:13:29;1.40;99.90
13322;DHT22;6730;46.248;6.930;2024-01-11T14:15:55;1.40;99.90
13322;DHT22;6730;46.248;6.930;2024-01-11T14:18:22;1.20;99.90
13322;DHT22;6730;46.248;6.930;2024-01-11T14:20:48;0.80;99.90
13322;DHT22;6730;46.248;6.930;2024-01-11T14:23:14;0.50;99.90
13322;DHT22;6730;46.248;6.930;2024-01-11T14:25:40;0.20;99.90
13322;DHT22;6730;46.248;6.930;2024-01-11T14:28:06;0.00;99.90
13322;DHT22;6730;46.248;6.930;2024-01-11T14:30:33;-0.10;99.90
13322;DHT22;6730;46.248;6.930;2024-01-11T14:32:59;-0.10;99.90
13322;DHT22;6730;46.248;6.930;2024-01-11T14:35:25;-0.10;99.90
13322;DHT22;6730;46.248;6.930;2024-01-11T14:37:51;-0.20;99.90
13322;DHT22;6730;46.248;6.930;2024-01-11T14:40:18;-0.30;99.90
13322;DHT22;6730;46.248;6.930;2024-01-11T14:42:44;-0.20;99.90
13322;DHT22;6730;46.248;6.930;2024-01-11T14:45:09;-0.40;99.90
13322;DHT22;6730;46.248;6.930;2024-01-11T14:47:35;-0.30;99.90
13322;DHT22;6730;46.248;6.930;2024-01-11T14:50:01;-0.30;99.90
13322;DHT22;6730;46.248;6.930;2024-01-11T14:52:31;-0.30;99.90
13322;DHT22;6730;46.248;6.930;2024-01-11T14:54:57;0.00;99.90
13322;DHT22;6730;46.248;6.930;2024-01-11T14:57:22;0.30;99.90
13322;DHT22;6730;46.248;6.930;2024-01-11T14:59:48;0.40;99.90
13322;DHT22;6730;46.248;6.930;2024-01-11T15:02:14;0.60;99.90
13322;DHT22;6730;46.248;6.930;2024-01-11T15:04:40;0.70;99.90
13322;DHT22;6730;46.248;6.930;2024-01-11T15:07:06;0.70;99.90
13322;DHT22;6730;46.248;6.930;2024-01-11T15:09:31;0.70;99.90
13322;DHT22;6730;46.248;6.930;2024-01-11T15:11:57;0.90;99.90
13322;DHT22;6730;46.248;6.930;2024-01-11T15:14:23;0.90;99.90
13322;DHT22;6730;46.248;6.930;2024-01-11T15:16:48;1.20;99.90
13322;DHT22;6730;46.248;6.930;2024-01-11T15:19:15;1.10;99.90
13322;DHT22;6730;46.248;6.930;2024-01-11T15:21:40;1.00;99.90
13322;DHT22;6730;46.248;6.930;2024-01-11T15:24:07;1.10;99.90
13322;DHT22;6730;46.248;6.930;2024-01-11T15:26:33;1.30;99.90
13322;DHT22;6730;46.248;6.930;2024-01-11T15:29:02;1.10;99.90
13322;DHT22;6730;46.248;6.930;2024-01-11T15:31:27;0.90;99.90
13322;DHT22;6730;46.248;6.930;2024-01-11T15:33:53;0.70;99.90
13322;DHT22;6730;46.248;6.930;2024-01-11T15:36:20;0.70;99.90
13322;DHT22;6730;46.248;6.930;2024-01-11T15:38:46;0.70;99.90
13322;DHT22;6730;46.248;6.930;2024-01-11T15:41:12;0.70;99.90
13322;DHT22;6730;46.248;6.930;2024-01-11T15:43:37;0.80;99.90
13322;DHT22;6730;46.248;6.930;2024-01-11T15:46:03;0.70;99.90
13322;DHT22;6730;46.248;6.930;2024-01-11T15:48:29;0.60;99.90
13322;DHT22;6730;46.248;6.930;2024-01-11T15:50:55;0.60;99.90
13322;DHT22;6730;46.248;6.930;2024-01-11T15:53:22;0.60;99.90
13322;DHT22;6730;46.248;6.930;2024-01-11T15:55:48;0.70;99.90
13322;DHT22;6730;46.248;6.930;2024-01-11T15:58:15;0.70;99.90
13322;DHT22;6730;46.248;6.930;2024-01-11T16:00:40;0.80;99.90
13322;DHT22;6730;46.248;6.930;2024-01-11T16:03:09;0.80;99.90